N27VC KPBI-KGNV
Flight info
| Callsign | N27VC |
|---|---|
| Flight time | N/A |
| Altitude | 40000 |
| Route | TBIRD7 KPASA |
| Aircraft | C25B/M-SDE2E3FGHRWXY/LB1 |
Departure
| Time | 2026-05-05 01:21 |
|---|---|
| Airport | Palm Beach International Airport (KPBI) |
Arrival
| Time | N/A |
|---|---|
| Airport | Gainesville Regional Airport (KGNV) |
| Time | Latitude | Longitude | Altitude | Speed | Heading |
|---|---|---|---|---|---|
| 2026-05-05 01:00 | 26.67947 | -80.09844 | 19 ft | 0 kts | 268° |
| 2026-05-05 01:18 | 26.67964 | -80.09866 | 21 ft | 14 kts | 343° |
| 2026-05-05 01:18 | 26.68015 | -80.09907 | 24 ft | 0 kts | 261° |
| 2026-05-05 01:18 | 26.68038 | -80.09928 | 23 ft | 8 kts | 3° |
| 2026-05-05 01:18 | 26.68124 | -80.09922 | 23 ft | 13 kts | 3° |
| 2026-05-05 01:19 | 26.68172 | -80.09958 | 25 ft | 10 kts | 279° |
| 2026-05-05 01:19 | 26.68177 | -80.10099 | 23 ft | 22 kts | 271° |
| 2026-05-05 01:19 | 26.68187 | -80.10276 | 22 ft | 24 kts | 274° |
| 2026-05-05 01:19 | 26.68196 | -80.10457 | 19 ft | 10 kts | 274° |
| 2026-05-05 01:20 | 26.68207 | -80.10478 | 21 ft | 0 kts | 332° |
| 2026-05-05 01:20 | 26.68208 | -80.10479 | 21 ft | 2 kts | 331° |
| 2026-05-05 01:20 | 26.68264 | -80.10463 | 18 ft | 15 kts | 36° |
| 2026-05-05 01:20 | 26.68301 | -80.10370 | 19 ft | 9 kts | 95° |
| 2026-05-05 01:21 | 26.68300 | -80.10353 | 19 ft | 0 kts | 94° |
| 2026-05-05 01:21 | 26.68293 | -80.10186 | 24 ft | 81 kts | 93° |
| 2026-05-05 01:21 | 26.68237 | -80.09116 | 247 ft | 179 kts | 90° |
| 2026-05-05 01:21 | 26.68151 | -80.07509 | 944 ft | 209 kts | 94° |
| 2026-05-05 01:22 | 26.68088 | -80.06012 | 1811 ft | 179 kts | 89° |
| 2026-05-05 01:22 | 26.68078 | -80.04691 | 2466 ft | 165 kts | 92° |
| 2026-05-05 01:22 | 26.68021 | -80.03333 | 2530 ft | 185 kts | 93° |
| 2026-05-05 01:22 | 26.68026 | -80.01831 | 2523 ft | 201 kts | 81° |
| 2026-05-05 01:23 | 26.68488 | -80.00309 | 2529 ft | 214 kts | 67° |
| 2026-05-05 01:23 | 26.69383 | -79.98955 | 2530 ft | 226 kts | 47° |
| 2026-05-05 01:23 | 26.70702 | -79.97936 | 2529 ft | 236 kts | 28° |
| 2026-05-05 01:23 | 26.72321 | -79.97464 | 2541 ft | 244 kts | 14° |
| 2026-05-05 01:24 | 26.73994 | -79.97142 | 2641 ft | 244 kts | 12° |
| 2026-05-05 01:24 | 26.75708 | -79.97210 | 2725 ft | 250 kts | 353° |
| 2026-05-05 01:24 | 26.77382 | -79.97769 | 2831 ft | 253 kts | 339° |
| 2026-05-05 01:24 | 26.78875 | -79.98862 | 2879 ft | 259 kts | 323° |
| 2026-05-05 01:25 | 26.80072 | -80.00387 | 2940 ft | 264 kts | 305° |
| 2026-05-05 01:25 | 26.80867 | -80.02234 | 3013 ft | 265 kts | 290° |
| 2026-05-05 01:25 | 26.81429 | -80.04173 | 3079 ft | 265 kts | 290° |
| 2026-05-05 01:25 | 26.82057 | -80.06121 | 3145 ft | 266 kts | 291° |
| 2026-05-05 01:26 | 26.82667 | -80.08077 | 3215 ft | 265 kts | 289° |
| 2026-05-05 01:26 | 26.83266 | -80.10028 | 3287 ft | 264 kts | 290° |
| 2026-05-05 01:26 | 26.83884 | -80.12036 | 3882 ft | 278 kts | 289° |
| 2026-05-05 01:26 | 26.84524 | -80.14103 | 5785 ft | 282 kts | 289° |
| 2026-05-05 01:27 | 26.85158 | -80.16138 | 7682 ft | 279 kts | 287° |
| 2026-05-05 01:27 | 26.85787 | -80.18191 | 9518 ft | 286 kts | 287° |
| 2026-05-05 01:27 | 26.86479 | -80.20466 | 10029 ft | 334 kts | 287° |
| 2026-05-05 01:27 | 26.87296 | -80.23111 | 10046 ft | 376 kts | 287° |
| 2026-05-05 01:28 | 26.88120 | -80.25759 | 10040 ft | 341 kts | 287° |
| 2026-05-05 01:28 | 26.88870 | -80.28169 | 10039 ft | 315 kts | 287° |
| 2026-05-05 01:28 | 26.89327 | -80.29679 | 10038 ft | 301 kts | 287° |